Time;durP1;ratioP1;P1;durP2;ratioP2;P2;SDS_P1;SDS_P2;PMS_P1;PMS_P2;Temp;Humidity;BMP_temperature;BMP_pressure;BME280_temperature;BME280_humidity;BME280_pressure;Samples;Min_cycle;Max_cycle;Signal;HPM_P1;HPM_P2
2022/07/21 00:03:12;;;;;;;15.30;14.03;;;;;;;23.79;84.76;100251.41;10431100;28;20040;-70
2022/07/21 00:08:13;;;;;;;15.27;13.85;;;;;;;23.77;82.33;100253.53;10430036;28;20055;-71
2022/07/21 00:13:15;;;;;;;15.18;13.77;;;;;;;23.79;84.24;100256.84;10419834;28;20048;-70
2022/07/21 00:18:17;;;;;;;16.85;15.18;;;;;;;23.90;83.03;100258.97;10431090;28;20044;-71
2022/07/21 00:23:18;;;;;;;15.73;14.35;;;;;;;23.90;83.12;100258.97;10426206;28;20674;-71
2022/07/21 00:28:20;;;;;;;16.35;14.75;;;;;;;23.86;83.20;100284.06;10431306;28;20056;-72
2022/07/21 00:33:21;;;;;;;17.08;15.43;;;;;;;23.87;83.65;100280.28;10415817;28;20534;-68
2022/07/21 00:38:23;;;;;;;16.38;14.70;;;;;;;23.84;82.35;100284.25;10429161;28;20459;-72
2022/07/21 00:43:24;;;;;;;15.82;14.32;;;;;;;23.73;84.41;100287.59;10433917;28;20463;-72
2022/07/21 00:48:26;;;;;;;17.02;15.32;;;;;;;23.75;85.01;100304.50;10430739;28;20664;-71
2022/07/21 00:53:27;;;;;;;17.95;16.27;;;;;;;23.83;84.00;100307.03;10429528;28;20664;-71
2022/07/21 00:58:28;;;;;;;19.63;17.73;;;;;;;23.68;83.28;100311.84;10431202;28;20139;-69
2022/07/21 01:03:30;;;;;;;17.63;16.02;;;;;;;23.58;83.37;100315.78;10435745;28;20189;-70
2022/07/21 01:08:31;;;;;;;18.25;16.75;;;;;;;23.62;82.76;100314.34;10433741;28;20091;-69
2022/07/21 01:13:33;;;;;;;18.52;16.73;;;;;;;23.40;83.66;100304.69;10439463;28;20161;-70
2022/07/21 01:18:36;;;;;;;18.25;16.60;;;;;;;23.40;85.76;100310.13;10420845;28;20589;-70
2022/07/21 01:23:37;;;;;;;17.70;16.25;;;;;;;23.36;86.79;100298.00;10440107;28;20132;-70
2022/07/21 01:28:39;;;;;;;19.25;17.45;;;;;;;23.31;86.42;100298.63;10437692;28;20671;-70
2022/07/21 01:33:41;;;;;;;17.45;16.02;;;;;;;23.44;87.07;100319.53;10434903;28;21638;-69
2022/07/21 01:44:08;;;;;;;19.63;17.63;;;;;;;23.35;86.87;100310.75;10437588;28;20472;-70
2022/07/21 01:49:11;;;;;;;17.90;16.30;;;;;;;23.23;87.03;100307.81;10440081;28;20136;-70
2022/07/21 01:54:14;;;;;;;17.35;15.75;;;;;;;22.93;87.25;100308.09;10421868;28;20717;-70
2022/07/21 01:59:23;;;;;;;15.80;14.30;;;;;;;22.83;88.68;100312.25;10430692;28;20126;-70
2022/07/21 02:04:25;;;;;;;15.82;14.43;;;;;;;23.01;89.48;100315.22;10437087;28;20045;-69
2022/07/21 02:09:27;;;;;;;15.52;14.00;;;;;;;23.06;86.31;100312.75;10436887;28;20048;-70
2022/07/21 02:14:28;;;;;;;15.60;14.13;;;;;;;22.92;85.73;100317.31;10434552;28;24929;-70
2022/07/21 02:19:30;;;;;;;15.70;13.30;;;;;;;23.04;85.25;100314.81;10431027;28;20765;-70
2022/07/21 02:24:31;;;;;;;16.38;14.65;;;;;;;22.87;85.92;100318.94;10433869;28;20132;-70
2022/07/21 02:29:33;;;;;;;15.43;14.13;;;;;;;22.79;86.34;100317.25;10436662;28;20120;-69
2022/07/21 02:34:34;;;;;;;14.27;12.88;;;;;;;22.97;82.41;100330.25;10445471;28;20053;-70
2022/07/21 02:39:36;;;;;;;11.48;9.95;;;;;;;22.85;79.95;100316.44;10447580;28;20080;-70
2022/07/21 02:44:37;;;;;;;10.45;9.55;;;;;;;22.71;77.06;100320.13;10443033;28;20099;-70
2022/07/21 02:49:39;;;;;;;8.13;7.38;;;;;;;22.63;77.55;100340.13;10461388;28;20074;-71
2022/07/21 02:54:44;;;;;;;8.60;7.70;;;;;;;22.54;77.08;100341.31;10471512;28;20051;-69
2022/07/21 02:59:45;;;;;;;8.50;7.80;;;;;;;22.51;77.51;100358.00;10436390;28;20055;-71
2022/07/21 03:04:47;;;;;;;8.95;7.20;;;;;;;22.74;75.71;100346.84;10484841;28;20060;-71
2022/07/21 03:09:48;;;;;;;7.93;7.25;;;;;;;22.75;74.35;100354.78;10481850;28;20052;-70
2022/07/21 03:14:50;;;;;;;8.20;7.43;;;;;;;22.65;75.13;100359.72;10441164;28;20048;-70
2022/07/21 03:19:51;;;;;;;8.48;7.00;;;;;;;;;;10431431;28;20135;-70
2022/07/21 03:24:52;;;;;;;8.68;6.60;;;;;;;22.80;74.04;100367.75;10439869;28;20045;-70
2022/07/21 03:29:53;;;;;;;7.40;6.28;;;;;;;22.73;73.64;100391.31;10414452;28;20095;-70
2022/07/21 03:34:55;;;;;;;8.85;6.25;;;;;;;;;;10430834;28;20059;-70
2022/07/21 03:39:56;;;;;;;5.65;5.18;;;;;;;22.76;70.05;100399.88;10433570;28;20053;-69
2022/07/21 03:44:57;;;;;;;5.40;4.90;;;;;;;22.57;69.56;100395.19;10412964;28;20072;-70
2022/07/21 03:49:59;;;;;;;5.65;5.15;;;;;;;22.37;70.30;100406.72;10431064;28;20562;-69
2022/07/21 03:55:09;;;;;;;5.40;4.90;;;;;;;22.30;68.52;100418.53;10432087;28;20044;-70
2022/07/21 04:00:18;;;;;;;6.25;4.70;;;;;;;22.35;68.48;100407.94;10435826;28;20945;-68
2022/07/21 04:05:21;;;;;;;4.57;4.18;;;;;;;22.48;68.29;100408.03;10431265;28;20052;-71
2022/07/21 04:10:26;;;;;;;5.37;4.43;;;;;;;22.41;67.49;100412.59;10434250;28;20064;-70
2022/07/21 04:15:28;;;;;;;5.53;5.03;;;;;;;22.42;68.13;100415.09;10415613;28;20053;-71
2022/07/21 04:20:29;;;;;;;4.90;4.50;;;;;;;22.43;68.66;100405.09;10426647;28;20653;-71
2022/07/21 04:25:31;;;;;;;4.82;4.18;;;;;;;22.36;69.37;100413.19;10430738;28;20049;-71
2022/07/21 04:30:33;;;;;;;4.45;3.85;;;;;;;22.36;69.14;100410.47;10429766;28;20770;-71
2022/07/21 04:35:35;;;;;;;5.28;4.78;;;;;;;22.20;68.92;100422.44;10431503;28;20045;-71
2022/07/21 04:40:36;;;;;;;5.13;4.60;;;;;;;22.14;72.31;100427.78;10442499;28;20041;-72
2022/07/21 04:45:38;;;;;;;5.63;5.13;;;;;;;22.40;70.04;100438.03;10431806;28;20195;-72
2022/07/21 04:50:39;;;;;;;4.80;4.32;;;;;;;22.49;71.52;100427.88;10397477;28;20053;-70
2022/07/21 04:55:41;;;;;;;5.47;4.97;;;;;;;22.32;69.03;100436.28;10426425;28;20045;-70
2022/07/21 05:00:42;;;;;;;5.43;4.93;;;;;;;22.03;70.85;100445.41;10433688;28;20048;-71
2022/07/21 05:05:44;;;;;;;5.95;4.80;;;;;;;21.79;72.06;100436.63;10433852;28;20564;-69
2022/07/21 05:10:45;;;;;;;5.43;4.93;;;;;;;21.91;70.01;100450.50;10429434;28;20067;-71
2022/07/21 05:15:46;;;;;;;5.60;5.05;;;;;;;21.92;70.04;100456.75;10431196;28;20060;-69
2022/07/21 05:20:48;;;;;;;5.78;5.30;;;;;;;21.99;69.87;100454.94;10431465;28;20056;-71
2022/07/21 05:25:49;;;;;;;5.95;5.45;;;;;;;22.15;69.06;100457.41;10433933;28;20058;-70
2022/07/21 05:30:51;;;;;;;6.43;5.72;;;;;;;22.23;69.05;100454.56;10432050;28;21613;-71
2022/07/21 05:35:52;;;;;;;6.45;5.85;;;;;;;22.43;68.08;100443.06;10436902;28;20060;-74
2022/07/21 05:40:54;;;;;;;7.03;6.43;;;;;;;22.43;65.73;100453.91;10432565;28;20059;-72
2022/07/21 05:45:55;;;;;;;7.20;6.50;;;;;;;22.45;65.57;100456.44;10437788;28;20589;-70
2022/07/21 05:51:00;;;;;;;6.40;5.80;;;;;;;22.37;65.93;100450.13;10433974;28;20059;-74
2022/07/21 05:56:01;;;;;;;6.82;6.13;;;;;;;22.31;65.45;100445.47;10435375;28;20293;-72
2022/07/21 06:01:09;;;;;;;7.60;6.60;;;;;;;22.32;66.30;100459.88;10417727;28;20063;-71
2022/07/21 06:06:18;;;;;;;6.70;6.03;;;;;;;22.24;67.01;100472.50;10420252;28;20059;-72
2022/07/21 06:11:20;;;;;;;6.50;5.90;;;;;;;22.16;67.03;100482.63;10437794;28;20767;-72
2022/07/21 06:16:21;;;;;;;7.20;5.82;;;;;;;22.32;66.42;100493.22;10433469;28;20057;-70
2022/07/21 06:21:23;;;;;;;7.00;6.32;;;;;;;22.72;65.72;100496.28;10434040;28;20087;-72
2022/07/21 06:26:25;;;;;;;6.05;5.40;;;;;;;23.11;65.48;100496.78;10433646;28;20501;-75
2022/07/21 06:31:27;;;;;;;6.30;5.68;;;;;;;23.03;65.13;100494.16;10436788;28;20916;-78
2022/07/21 06:36:28;;;;;;;7.03;6.38;;;;;;;22.83;64.77;100496.78;10431052;28;20078;-74
2022/07/21 06:41:30;;;;;;;7.88;6.15;;;;;;;22.84;66.13;100493.84;10431116;28;20051;-75
2022/07/21 06:46:34;;;;;;;6.85;6.25;;;;;;;23.17;64.51;100490.53;10432306;28;20231;-75
2022/07/21 06:51:36;;;;;;;7.05;6.00;;;;;;;23.14;63.20;100493.66;10411577;28;20136;-74
2022/07/21 06:56:37;;;;;;;5.93;5.43;;;;;;;22.91;62.01;100494.75;10428481;28;20055;-74
2022/07/21 07:01:38;;;;;;;7.63;5.70;;;;;;;22.86;62.90;100502.63;10437000;28;20044;-74
2022/07/21 07:06:40;;;;;;;5.93;5.18;;;;;;;22.78;63.47;100517.19;10430714;28;20076;-74
2022/07/21 07:11:41;;;;;;;6.38;5.82;;;;;;;22.81;64.55;100509.72;10433248;28;20574;-74
2022/07/21 07:17:03;;;;;;;7.13;6.15;;;;;;;22.65;63.91;100505.41;10429198;28;20052;-73
2022/07/21 07:22:05;;;;;;;6.65;5.95;;;;;;;22.64;63.77;100518.13;10441991;28;20040;-75
2022/07/21 07:27:06;;;;;;;7.18;5.88;;;;;;;22.91;64.32;100521.88;10436967;28;20049;-76
2022/07/21 07:32:08;;;;;;;7.30;5.95;;;;;;;22.99;63.11;100530.91;10426711;28;21894;-74
2022/07/21 07:37:10;;;;;;;4.95;4.55;;;;;;;23.50;62.26;100530.59;10433415;28;20423;-74
2022/07/21 07:42:12;;;;;;;7.32;6.57;;;;;;;23.72;60.92;100528.63;10411443;28;20079;-73
2022/07/21 07:47:13;;;;;;;6.63;5.80;;;;;;;23.75;60.47;100524.63;10413110;28;20105;-74
2022/07/21 07:52:15;;;;;;;6.68;6.07;;;;;;;23.61;60.83;100534.63;10425207;28;20056;-75
2022/07/21 07:57:16;;;;;;;6.40;5.63;;;;;;;24.18;59.71;100527.94;10424569;28;20207;-75
2022/07/21 08:02:17;;;;;;;6.45;5.60;;;;;;;24.44;57.57;100537.16;10398333;28;20062;-71
2022/07/21 08:07:19;;;;;;;5.18;4.72;;;;;;;24.35;59.47;100528.38;10428824;28;20388;-75
2022/07/21 08:12:20;;;;;;;5.43;4.95;;;;;;;24.46;55.52;100531.53;10424565;28;20048;-74
2022/07/21 08:17:22;;;;;;;4.72;4.28;;;;;;;24.81;55.95;100525.88;10424960;28;20052;-73
2022/07/21 08:22:23;;;;;;;4.60;4.10;;;;;;;25.05;53.64;100525.19;10426771;28;20048;-75
2022/07/21 08:27:24;;;;;;;4.55;4.15;;;;;;;24.94;53.44;100531.31;10432435;28;20682;-73
2022/07/21 08:32:26;;;;;;;4.80;4.35;;;;;;;24.21;55.40;100532.09;10414130;28;20056;-73
2022/07/21 08:37:27;;;;;;;5.15;4.65;;;;;;;24.47;56.52;100525.88;10428449;28;20044;-74
2022/07/21 08:42:29;;;;;;;5.07;4.63;;;;;;;24.81;54.56;100520.44;10423088;28;20116;-73
2022/07/21 08:47:31;;;;;;;5.83;5.10;;;;;;;25.60;52.53;100518.59;10427172;28;20499;-74
2022/07/21 08:52:33;;;;;;;5.30;4.68;;;;;;;25.77;51.60;100521.63;10428362;28;20510;-70
2022/07/21 08:57:38;;;;;;;5.38;4.15;;;;;;;25.41;51.79;100518.44;10425454;28;20059;-72
2022/07/21 09:02:40;;;;;;;5.35;4.45;;;;;;;25.23;53.63;100523.72;10412542;28;20510;-73
2022/07/21 09:07:49;;;;;;;5.18;4.68;;;;;;;25.23;51.72;100523.72;10425500;28;20117;-75
2022/07/21 09:12:54;;;;;;;4.85;4.35;;;;;;;25.10;53.42;100510.13;10426625;28;20841;-73
2022/07/21 09:18:13;;;;;;;4.75;4.35;;;;;;;25.01;54.29;100517.69;10427633;28;20197;-72
2022/07/21 09:23:17;;;;;;;4.78;4.30;;;;;;;24.89;54.67;100520.19;10424222;28;20565;-74
2022/07/21 09:28:27;;;;;;;4.70;4.00;;;;;;;25.11;51.90;100503.63;10415829;28;20135;-73
2022/07/21 09:33:33;;;;;;;3.88;3.47;;;;;;;25.91;50.83;100503.31;10411979;28;20205;-73
2022/07/21 09:38:41;;;;;;;4.40;4.00;;;;;;;26.04;47.88;100492.34;10430711;28;20661;-74
2022/07/21 09:43:46;;;;;;;3.60;3.25;;;;;;;26.57;46.48;100490.28;10427585;28;20198;-73
2022/07/21 09:48:51;;;;;;;4.13;3.47;;;;;;;26.69;45.58;100488.50;10415803;28;20041;-72
2022/07/21 09:54:13;;;;;;;3.55;2.75;;;;;;;27.00;44.70;100497.66;10426851;28;20476;-72
2022/07/21 09:59:14;;;;;;;3.30;3.00;;;;;;;27.05;45.21;100495.06;10410535;28;20064;-74
2022/07/21 10:04:21;;;;;;;5.03;3.17;;;;;;;27.12;44.39;100495.84;10419778;28;20055;-72
2022/07/21 10:09:44;;;;;;;4.85;4.20;;;;;;;26.87;45.53;100489.59;10430074;28;20426;-72
2022/07/21 10:14:46;;;;;;;;;;;;;;;27.24;44.17;100489.63;10427504;28;20892;-73
2022/07/21 10:20:02;;;;;;;3.30;2.58;;;;;;;27.30;42.46;100485.97;10430923;28;20040;-74
2022/07/21 10:25:06;;;;;;;3.85;2.50;;;;;;;27.16;42.24;100488.88;10466461;28;20048;-74
2022/07/21 10:30:08;;;;;;;3.08;2.78;;;;;;;27.73;42.23;100481.44;10436144;28;20058;-74
2022/07/21 10:35:30;;;;;;;3.33;2.72;;;;;;;28.19;41.89;100477.22;10433247;28;20052;-74
2022/07/21 10:40:32;;;;;;;3.08;2.83;;;;;;;28.31;41.59;100466.31;10433247;28;21601;-72
2022/07/21 10:45:33;;;;;;;;;;;;;;;28.84;40.30;100464.53;10433900;28;20146;-73
2022/07/21 10:50:37;;;;;;;2.65;2.45;;;;;;;29.13;38.37;100470.13;10439307;28;20433;-73
2022/07/21 10:55:47;;;;;;;3.22;2.35;;;;;;;29.30;39.95;100457.34;10429626;28;20054;-74
2022/07/21 11:00:51;;;;;;;3.30;2.20;;;;;;;29.59;38.09;100451.88;10430130;28;20207;-73
2022/07/21 11:06:22;;;;;;;2.33;1.80;;;;;;;29.81;36.93;100441.06;10431278;28;20044;-74
2022/07/21 11:11:36;;;;;;;2.50;2.30;;;;;;;29.68;36.76;100436.69;10432809;28;20053;-75
2022/07/21 11:16:40;;;;;;;2.67;2.00;;;;;;;29.08;37.15;100443.44;10417684;28;21977;-74
2022/07/21 11:21:41;;;;;;;2.90;2.60;;;;;;;28.82;37.45;100442.88;10423088;28;20105;-74
2022/07/21 11:26:43;;;;;;;2.57;2.37;;;;;;;28.34;39.42;100438.44;10408726;28;20144;-75
2022/07/21 11:31:46;;;;;;;2.73;2.10;;;;;;;28.13;39.77;100432.47;10412101;28;20526;-74
2022/07/21 11:36:57;;;;;;;2.78;2.58;;;;;;;27.71;41.18;100435.19;10409975;28;20052;-74
2022/07/21 11:42:20;;;;;;;3.28;2.30;;;;;;;27.94;40.60;100439.06;10410364;28;20574;-74
2022/07/21 11:47:29;;;;;;;3.17;1.95;;;;;;;27.83;40.04;100425.16;10412061;28;20044;-74
2022/07/21 11:52:34;;;;;;;3.17;2.60;;;;;;;27.46;41.26;100428.00;10408446;28;20048;-73
2022/07/21 11:57:40;;;;;;;2.55;2.20;;;;;;;27.54;40.96;100428.75;10409160;28;20056;-72
2022/07/21 12:02:42;;;;;;;3.35;1.90;;;;;;;27.38;40.75;100430.19;10431451;28;20116;-74
2022/07/21 12:07:46;;;;;;;2.60;2.13;;;;;;;27.02;41.62;100432.69;10453988;28;20048;-73
2022/07/21 12:12:50;;;;;;;3.85;2.90;;;;;;;26.60;42.21;100446.16;10458729;28;20045;-73
2022/07/21 12:18:04;;;;;;;2.75;2.55;;;;;;;26.59;42.60;100439.03;10449755;28;20056;-73
2022/07/21 12:23:26;;;;;;;2.85;2.33;;;;;;;27.45;41.83;100431.78;10464747;28;20113;-74
2022/07/21 12:28:47;;;;;;;2.22;2.03;;;;;;;28.28;39.70;100422.97;10468657;28;20068;-73
2022/07/21 12:33:51;;;;;;;3.53;3.10;;;;;;;28.78;38.19;100422.53;10455756;28;20056;-74
2022/07/21 12:39:13;;;;;;;4.95;2.83;;;;;;;29.12;37.50;100411.72;10472978;28;20048;-74
2022/07/21 12:44:15;;;;;;;4.18;2.60;;;;;;;29.66;35.55;100416.06;10462887;28;20146;-74
2022/07/21 12:49:16;;;;;;;3.40;2.33;;;;;;;29.42;35.93;100421.66;10460660;28;20055;-76
2022/07/21 12:54:18;;;;;;;3.03;2.80;;;;;;;29.41;34.28;100406.28;10477671;28;20051;-75
2022/07/21 12:59:19;;;;;;;2.83;2.30;;;;;;;29.64;35.03;100399.06;10477454;28;20154;-74
2022/07/21 13:04:20;;;;;;;2.70;2.50;;;;;;;29.96;32.60;100388.38;10465622;28;20083;-75
2022/07/21 13:09:22;;;;;;;3.83;3.17;;;;;;;29.82;32.64;100387.88;10483502;28;20183;-75
2022/07/21 13:14:23;;;;;;;4.50;3.23;;;;;;;29.86;33.17;100385.44;10486310;28;20044;-76
2022/07/21 13:19:28;;;;;;;3.67;2.67;;;;;;;29.86;32.64;100383.56;10482208;28;20375;-74
2022/07/21 13:24:29;;;;;;;3.73;3.40;;;;;;;29.67;32.13;100384.84;10465401;28;20044;-72
2022/07/21 13:29:30;;;;;;;4.03;3.57;;;;;;;29.74;31.67;100374.53;10441929;28;20075;-75
2022/07/21 13:34:32;;;;;;;4.27;3.80;;;;;;;29.54;32.56;100377.75;10454474;28;20404;-74
2022/07/21 13:39:34;;;;;;;;;;;;;;;29.08;33.72;100385.91;10458092;28;20048;-74
2022/07/21 13:44:55;;;;;;;4.03;3.63;;;;;;;28.74;34.53;100367.38;10462313;28;19931;-75
2022/07/21 13:49:57;;;;;;;4.75;4.20;;;;;;;28.59;34.91;100379.91;10470136;28;20104;-76
2022/07/21 13:54:59;;;;;;;5.47;3.75;;;;;;;28.54;35.09;100378.72;10477813;28;20675;-74
2022/07/21 14:00:04;;;;;;;4.50;4.10;;;;;;;29.00;34.24;100380.78;10455817;28;20071;-74
2022/07/21 14:05:06;;;;;;;5.03;4.22;;;;;;;29.33;33.49;100368.31;10449683;28;20470;-72
2022/07/21 14:10:08;;;;;;;4.60;4.10;;;;;;;29.34;33.90;100359.03;10438861;28;20052;-75
2022/07/21 14:15:10;;;;;;;4.13;3.72;;;;;;;29.50;33.59;100368.34;10448087;28;20115;-75
2022/07/21 14:20:12;;;;;;;4.28;3.58;;;;;;;29.10;34.47;100364.56;10444640;28;20928;-75
2022/07/21 14:25:19;;;;;;;4.03;3.57;;;;;;;29.03;34.27;100363.88;10426905;28;20388;-75
2022/07/21 14:30:22;;;;;;;4.53;4.13;;;;;;;28.94;34.60;100357.94;10420180;28;20055;-73
2022/07/21 14:35:25;;;;;;;5.00;3.70;;;;;;;28.86;33.61;100364.63;10419348;28;20547;-74
2022/07/21 14:40:26;;;;;;;3.90;3.53;;;;;;;29.03;33.54;100352.91;10413486;28;20064;-73
2022/07/21 14:45:28;;;;;;;4.85;4.45;;;;;;;29.17;33.18;100347.97;10458304;28;20098;-73
2022/07/21 14:50:30;;;;;;;3.53;3.23;;;;;;;29.23;33.84;100347.00;10441428;28;20049;-74
2022/07/21 14:55:31;;;;;;;4.20;3.20;;;;;;;29.47;33.10;100346.91;10437439;28;20584;-74
2022/07/21 15:00:33;;;;;;;4.87;3.80;;;;;;;29.46;34.07;100350.75;10435465;28;20130;-75
2022/07/21 15:05:34;;;;;;;3.90;3.50;;;;;;;29.26;34.05;100341.88;10436292;28;20412;-75
2022/07/21 15:10:36;;;;;;;5.17;4.00;;;;;;;29.05;34.63;100358.97;10424336;28;20409;-73
2022/07/21 15:15:37;;;;;;;4.30;4.00;;;;;;;28.72;35.20;100346.81;10447027;28;20918;-74
2022/07/21 15:20:39;;;;;;;4.25;3.95;;;;;;;28.67;35.71;100346.69;10449358;28;20048;-74
2022/07/21 15:25:41;;;;;;;4.82;4.40;;;;;;;28.49;36.29;100353.13;10444131;28;20276;-75
2022/07/21 15:30:43;;;;;;;5.05;4.55;;;;;;;28.26;36.74;100343.03;10437375;28;20095;-73
2022/07/21 15:35:49;;;;;;;4.50;3.95;;;;;;;28.16;37.07;100349.09;10430208;28;20087;-74
2022/07/21 15:40:50;;;;;;;5.00;4.50;;;;;;;28.15;37.35;100347.41;10409144;28;20070;-73
2022/07/21 15:45:51;;;;;;;4.80;4.40;;;;;;;28.21;37.04;100347.31;10431224;28;20051;-76
2022/07/21 15:50:53;;;;;;;4.67;4.03;;;;;;;28.20;37.63;100342.91;10418688;28;20193;-73
2022/07/21 15:55:54;;;;;;;4.40;3.92;;;;;;;28.13;36.95;100344.91;10427748;28;20056;-72
2022/07/21 16:00:57;;;;;;;4.20;3.80;;;;;;;27.98;36.16;100347.28;10415605;28;20052;-73
2022/07/21 16:05:58;;;;;;;5.35;3.67;;;;;;;27.86;36.24;100345.38;10423730;28;20056;-74
2022/07/21 16:11:00;;;;;;;5.63;4.10;;;;;;;27.76;36.49;100327.84;10441851;28;20049;-76
2022/07/21 16:16:01;;;;;;;3.97;3.67;;;;;;;27.75;36.86;100337.97;10421565;28;20055;-74
2022/07/21 16:21:03;;;;;;;3.80;3.50;;;;;;;27.81;36.83;100337.03;10411038;28;20140;-78
2022/07/21 16:26:05;;;;;;;5.87;4.23;;;;;;;27.81;36.91;100331.56;10420524;28;20051;-75
2022/07/21 16:31:13;;;;;;;4.35;3.95;;;;;;;27.76;36.72;100341.53;10409051;28;20056;-73
2022/07/21 16:36:15;;;;;;;4.73;4.00;;;;;;;27.62;37.34;100339.03;10415448;28;21028;-75
2022/07/21 16:41:17;;;;;;;4.47;4.18;;;;;;;27.51;37.60;100332.44;10431647;28;20733;-73
2022/07/21 16:46:19;;;;;;;5.43;4.63;;;;;;;27.50;38.24;100336.25;10434049;28;20210;-76
2022/07/21 16:51:20;;;;;;;4.20;3.80;;;;;;;27.58;38.01;100343.28;10431136;28;20068;-73
2022/07/21 16:56:22;;;;;;;4.75;4.35;;;;;;;27.62;38.03;100333.56;10414994;28;20731;-74
2022/07/21 17:01:29;;;;;;;5.10;4.05;;;;;;;27.43;38.89;100356.53;10424855;28;20051;-72
2022/07/21 17:06:31;;;;;;;4.43;4.07;;;;;;;27.35;39.18;100360.44;10415311;28;20048;-74
2022/07/21 17:11:33;;;;;;;4.90;4.50;;;;;;;27.31;38.95;100356.50;10436605;28;20094;-74
2022/07/21 17:16:35;;;;;;;5.43;4.20;;;;;;;27.40;39.06;100357.84;10433249;28;20288;-74
2022/07/21 17:21:36;;;;;;;4.75;4.38;;;;;;;27.42;39.86;100357.63;10428843;28;20145;-73
2022/07/21 17:26:38;;;;;;;5.00;4.43;;;;;;;27.28;39.38;100354.22;10412780;28;20052;-73
2022/07/21 17:31:41;;;;;;;5.65;4.47;;;;;;;27.09;40.47;100356.16;10418656;28;20057;-73
2022/07/21 17:36:46;;;;;;;5.50;4.95;;;;;;;26.96;40.67;100368.06;10435508;28;20163;-73
2022/07/21 17:41:48;;;;;;;5.57;4.80;;;;;;;26.79;41.21;100368.69;10434711;28;20163;-73
2022/07/21 17:46:49;;;;;;;5.00;4.45;;;;;;;26.73;41.59;100375.06;10436825;28;20495;-73
2022/07/21 17:51:51;;;;;;;6.25;4.90;;;;;;;26.76;41.78;100369.16;10431611;28;20481;-71
2022/07/21 17:58:42;;;;;;;4.90;4.50;;;;;;;26.67;42.64;100380.59;10421321;28;20095;-73
2022/07/21 18:02:14;;;;;;;5.65;4.18;;;;;;;26.58;42.88;100382.75;10426440;28;20060;-73
2022/07/21 18:07:15;;;;;;;4.93;4.53;;;;;;;26.54;43.33;100385.13;10412735;28;20064;-75
2022/07/21 18:12:16;;;;;;;5.20;4.70;;;;;;;26.42;43.76;100385.03;10428151;28;20361;-73
2022/07/21 18:17:18;;;;;;;5.20;4.80;;;;;;;26.29;44.61;100391.44;10413201;28;20113;-72
2022/07/21 18:22:19;;;;;;;6.70;4.93;;;;;;;26.13;44.78;100386.56;10428770;28;20056;-71
2022/07/21 18:27:21;;;;;;;6.53;4.55;;;;;;;26.14;45.18;100393.69;10431102;28;20059;-71
2022/07/21 18:32:22;;;;;;;5.60;4.63;;;;;;;26.15;44.98;100392.59;10429361;28;20155;-72
2022/07/21 18:37:24;;;;;;;6.15;4.60;;;;;;;26.20;45.38;100391.97;10431367;28;20110;-72
2022/07/21 18:42:25;;;;;;;6.95;4.95;;;;;;;26.07;45.63;100399.19;10414981;28;20178;-71
2022/07/21 18:47:26;;;;;;;5.35;4.78;;;;;;;26.09;46.27;100401.69;10416350;28;20051;-73
2022/07/21 18:52:28;;;;;;;5.20;4.70;;;;;;;26.21;46.81;100404.53;10428022;28;20052;-72
2022/07/21 18:57:29;;;;;;;5.10;4.60;;;;;;;26.18;47.18;100402.25;10435446;28;20057;-73
2022/07/21 19:02:31;;;;;;;5.82;5.28;;;;;;;26.20;46.62;100408.34;10443279;28;20283;-74
2022/07/21 19:07:32;;;;;;;5.47;4.97;;;;;;;26.08;46.81;100416.41;10434402;28;20048;-67
2022/07/21 19:12:49;;;;;;;6.65;6.03;;;;;;;25.81;49.01;100419.28;10433757;28;20053;-71
2022/07/21 19:17:50;;;;;;;6.28;5.68;;;;;;;25.51;48.56;100430.78;10426454;28;21302;-69
2022/07/21 19:22:52;;;;;;;6.85;6.15;;;;;;;25.40;50.09;100426.00;10425519;28;20050;-70
2022/07/21 19:27:57;;;;;;;6.70;6.10;;;;;;;25.38;50.39;100434.41;10412588;28;20056;-69
2022/07/21 19:32:59;;;;;;;6.20;5.68;;;;;;;25.32;50.26;100434.44;10422348;28;20056;-71
2022/07/21 19:38:00;;;;;;;8.85;8.05;;;;;;;25.20;51.90;100453.31;10426486;28;20146;-70
2022/07/21 19:43:04;;;;;;;6.70;6.10;;;;;;;25.11;52.40;100454.63;10426812;28;20313;-69
2022/07/21 19:48:05;;;;;;;7.00;5.78;;;;;;;25.01;53.06;100471.38;10428773;28;20131;-69
2022/07/21 19:53:07;;;;;;;7.20;6.53;;;;;;;24.92;54.15;100468.09;10429173;28;20109;-69
2022/07/21 19:58:08;;;;;;;7.82;6.65;;;;;;;24.86;54.83;100479.78;10408948;28;20718;-70
2022/07/21 20:03:10;;;;;;;7.03;6.43;;;;;;;24.69;54.69;100491.13;10429046;28;20044;-69
2022/07/21 20:08:11;;;;;;;7.47;6.78;;;;;;;24.35;57.01;100486.72;10421300;28;20102;-68
2022/07/21 20:13:13;;;;;;;7.22;6.57;;;;;;;24.04;58.40;100492.75;10426707;28;20295;-71
2022/07/21 20:18:14;;;;;;;6.35;5.85;;;;;;;24.09;58.07;100493.81;10423978;28;20060;-68
2022/07/21 20:23:15;;;;;;;4.60;3.45;;;;;;;23.68;60.38;100504.78;10423513;28;20055;-72
2022/07/21 20:28:17;;;;;;;5.10;3.50;;;;;;;23.67;59.70;100503.09;10420591;28;20142;-71
2022/07/21 20:33:18;;;;;;;4.25;3.50;;;;;;;23.54;59.85;100507.44;10422297;28;20140;-70
2022/07/21 20:38:20;;;;;;;4.32;3.63;;;;;;;23.61;60.54;100493.84;10410847;28;20124;-73
2022/07/21 20:43:21;;;;;;;3.88;3.58;;;;;;;23.57;60.32;100503.44;10428003;28;22750;-70
2022/07/21 20:48:23;;;;;;;4.20;3.38;;;;;;;23.50;60.82;100506.16;10411424;28;20048;-71
2022/07/21 20:53:24;;;;;;;3.97;3.60;;;;;;;23.53;59.99;100505.75;10431491;28;20086;-72
2022/07/21 20:58:30;;;;;;;4.22;3.83;;;;;;;23.54;60.13;100523.72;10423191;28;20052;-73
2022/07/21 21:03:31;;;;;;;4.85;4.32;;;;;;;23.62;59.15;100528.97;10429527;28;20129;-73
2022/07/21 21:08:33;;;;;;;4.70;4.30;;;;;;;23.49;60.09;100534.34;10434853;28;20040;-73
2022/07/21 21:13:34;;;;;;;5.10;4.60;;;;;;;23.45;59.33;100530.38;10433165;28;20194;-73
2022/07/21 21:18:36;;;;;;;5.40;4.80;;;;;;;23.45;59.11;100530.38;10440077;28;20819;-70
2022/07/21 21:23:38;;;;;;;4.65;4.35;;;;;;;23.33;59.16;100537.41;10438585;28;20512;-72
2022/07/21 21:28:39;;;;;;;5.17;4.60;;;;;;;23.16;58.90;100535.00;10430623;28;20148;-72
2022/07/21 21:33:41;;;;;;;5.00;4.50;;;;;;;23.18;58.51;100532.94;10420114;28;20052;-70
2022/07/21 21:38:42;;;;;;;5.55;5.05;;;;;;;23.20;57.72;100539.00;10424613;28;20144;-69
2022/07/21 21:43:44;;;;;;;5.53;4.95;;;;;;;23.18;58.55;100543.81;10438527;28;20053;-71
2022/07/21 21:48:45;;;;;;;5.00;4.53;;;;;;;23.21;58.41;100542.56;10417547;28;20134;-73
2022/07/21 21:53:46;;;;;;;5.50;5.00;;;;;;;23.22;57.92;100541.53;10436263;28;20163;-71
2022/07/21 21:58:48;;;;;;;5.63;4.88;;;;;;;23.06;58.58;100531.78;10438981;28;20070;-74
2022/07/21 22:03:49;;;;;;;5.93;5.32;;;;;;;23.04;58.26;100545.53;10432359;28;20138;-71
2022/07/21 22:08:51;;;;;;;7.07;4.55;;;;;;;23.06;57.43;100553.50;10433019;28;20139;-71
2022/07/21 22:13:53;;;;;;;5.28;4.78;;;;;;;22.99;58.34;100550.75;10428151;28;20117;-71
2022/07/21 22:18:54;;;;;;;6.32;4.95;;;;;;;22.93;58.60;100546.94;10435603;28;20110;-72
2022/07/21 22:23:59;;;;;;;5.50;5.00;;;;;;;22.67;59.43;100555.72;10440452;28;20052;-71
2022/07/21 22:29:01;;;;;;;6.90;4.78;;;;;;;22.65;60.05;100543.38;10437295;28;20052;-71
2022/07/21 22:34:02;;;;;;;5.40;5.00;;;;;;;22.66;60.00;100545.06;10445301;28;20155;-71
2022/07/21 22:39:04;;;;;;;9.35;5.57;;;;;;;22.54;59.44;100552.91;10433670;28;20092;-72
2022/07/21 22:44:05;;;;;;;5.03;4.63;;;;;;;22.48;60.29;100545.53;10423512;28;20182;-71
2022/07/21 22:49:06;;;;;;;5.38;4.88;;;;;;;22.44;60.06;100546.97;10416829;28;20052;-70
2022/07/21 22:54:09;;;;;;;6.40;5.10;;;;;;;22.39;60.22;100552.97;10433386;28;20048;-72
2022/07/21 22:59:10;;;;;;;5.60;5.10;;;;;;;22.28;60.52;100553.44;10428515;28;20056;-70
2022/07/21 23:04:12;;;;;;;5.60;4.90;;;;;;;22.26;60.87;100553.63;10440399;28;20412;-71
2022/07/21 23:09:13;;;;;;;5.90;5.30;;;;;;;22.18;61.18;100543.75;10438779;28;20053;-70
2022/07/21 23:14:15;;;;;;;6.13;5.63;;;;;;;22.12;61.16;100547.25;10435188;28;20056;-69
2022/07/21 23:19:16;;;;;;;6.43;5.55;;;;;;;22.11;61.27;100550.16;10431282;28;20700;-71